createdAt,value
2022-08-11T04:31:02.797Z,100556.59
2022-08-11T04:34:36.738Z,100556.59
2022-08-11T04:37:41.637Z,100570.34
2022-08-11T04:41:15.073Z,100566.19
2022-08-11T04:44:35.533Z,100572.44
2022-08-11T04:48:30.678Z,100578.75
2022-08-11T04:52:23.907Z,100575.50
2022-08-11T04:56:32.665Z,100577.38
2022-08-11T05:00:17.786Z,100570.44
2022-08-11T05:03:46.556Z,100571.63
2022-08-11T05:07:11.557Z,100566.41
2022-08-11T05:10:51.571Z,100564.94
2022-08-11T05:14:39.262Z,100567.19
2022-08-11T05:18:34.314Z,100563.63
2022-08-11T05:21:58.158Z,100566.84
2022-08-11T05:26:44.983Z,100574.94
2022-08-11T05:29:20.186Z,100573.56
2022-08-11T05:32:42.835Z,100576.94
2022-08-11T05:36:01.948Z,100592.97
2022-08-11T05:39:36.712Z,100586.03
2022-08-11T05:43:08.253Z,100579.28
2022-08-11T05:46:29.181Z,100589.72
2022-08-11T05:49:52.211Z,100593.31
2022-08-11T05:53:14.193Z,100590.75
2022-08-11T05:56:21.872Z,100588.25
2022-08-11T05:59:25.954Z,100586.53
2022-08-11T06:02:29.279Z,100586.56
2022-08-11T06:05:43.322Z,100589.22
2022-08-11T06:08:46.687Z,100594.44
2022-08-11T06:11:50.134Z,100599.78
2022-08-11T06:14:57.213Z,100596.06
2022-08-11T06:18:02.810Z,100592.44
2022-08-11T06:21:11.048Z,100598.91
2022-08-11T06:24:15.408Z,100588.28
2022-08-11T06:27:22.639Z,100583.78
2022-08-11T06:30:39.610Z,100581.16
2022-08-11T06:33:50.913Z,100575.75
2022-08-11T06:37:27.195Z,100574.91
2022-08-11T06:41:14.306Z,100579.09
2022-08-11T06:44:32.391Z,100580.00
2022-08-11T06:47:35.854Z,100577.25
2022-08-11T06:51:08.168Z,100576.94
2022-08-11T06:54:13.968Z,100572.37
2022-08-11T06:57:37.757Z,100572.50
2022-08-11T07:00:41.344Z,100575.53
2022-08-11T07:03:55.010Z,100568.78
2022-08-11T07:07:34.886Z,100567.62
2022-08-11T07:11:14.601Z,100579.84
2022-08-11T07:14:42.363Z,100570.25
2022-08-11T07:18:13.467Z,100562.87
2022-08-11T07:22:00.471Z,100572.06
2022-08-11T07:25:47.716Z,100567.69
2022-08-11T07:28:56.438Z,100567.84
2022-08-11T07:32:03.445Z,100575.63
2022-08-11T07:35:16.430Z,100568.06
2022-08-11T07:38:25.262Z,100578.91
2022-08-11T07:41:31.102Z,100575.03
2022-08-11T07:44:54.979Z,100577.50
2022-08-11T07:48:16.187Z,100573.78
2022-08-11T07:51:39.231Z,100563.84
2022-08-11T07:54:42.638Z,100565.53
2022-08-11T07:58:16.035Z,100563.97
2022-08-11T08:01:43.853Z,100564.88
2022-08-11T08:05:05.738Z,100564.78
2022-08-11T08:08:27.946Z,100553.72
2022-08-11T08:11:49.250Z,100553.31
2022-08-11T08:15:12.049Z,100557.81
2022-08-11T08:18:26.900Z,100549.28
2022-08-11T08:21:29.954Z,100548.25
2022-08-11T08:24:33.358Z,100556.16
2022-08-11T08:27:36.371Z,100559.25
2022-08-11T08:30:50.706Z,100538.87
2022-08-11T08:33:53.415Z,100546.44
2022-08-11T08:36:55.870Z,100547.09
2022-08-11T08:39:59.110Z,100543.47
2022-08-11T08:43:07.471Z,100533.41
2022-08-11T08:46:11.617Z,100540.16
2022-08-11T08:49:22.541Z,100541.56
2022-08-11T08:52:33.533Z,100530.47
2022-08-11T08:55:45.304Z,100528.03
2022-08-11T08:58:49.456Z,100530.94
2022-08-11T09:02:03.361Z,100525.53
2022-08-11T09:05:07.676Z,100518.25
2022-08-11T09:08:10.614Z,100526.41
2022-08-11T09:11:32.407Z,100525.00
2022-08-11T09:14:57.745Z,100513.03
2022-08-11T09:18:06.156Z,100512.19
2022-08-11T09:21:08.828Z,100501.94
2022-08-11T09:24:30.682Z,100500.12
2022-08-11T09:27:33.513Z,100501.16
2022-08-11T09:30:36.747Z,100491.81
2022-08-11T09:33:40.494Z,100489.66
2022-08-11T09:37:04.501Z,100489.31
2022-08-11T09:40:27.500Z,100483.69
2022-08-11T09:43:48.524Z,100466.69
2022-08-11T09:46:55.236Z,100469.16
2022-08-11T09:50:01.700Z,100465.03
2022-08-11T09:53:36.610Z,100463.00
2022-08-11T09:56:47.760Z,100471.28
2022-08-11T09:59:52.935Z,100474.06
2022-08-11T10:03:24.921Z,100467.50
2022-08-11T10:06:54.090Z,100474.31
2022-08-11T10:10:01.229Z,100472.34
2022-08-11T10:14:32.051Z,100465.97
2022-08-11T10:16:37.287Z,100469.19
2022-08-11T10:19:42.090Z,100465.56
2022-08-11T10:23:03.412Z,100458.09
2022-08-11T10:26:26.643Z,100444.00
2022-08-11T10:29:56.039Z,100448.44
2022-08-11T10:33:36.442Z,100438.81
2022-08-11T10:36:48.207Z,100437.66
2022-08-11T10:39:52.104Z,100436.00
2022-08-11T10:43:13.034Z,100429.28
2022-08-11T10:46:34.603Z,100431.62
2022-08-11T10:49:37.293Z,100430.75
2022-08-11T10:52:59.195Z,100427.59
2022-08-11T10:56:22.666Z,100415.63
2022-08-11T10:59:28.026Z,100419.50
2022-08-11T11:02:31.052Z,100416.84
2022-08-11T11:05:33.896Z,100405.41
2022-08-11T11:08:57.566Z,100407.66
2022-08-11T11:12:35.521Z,100406.63
2022-08-11T11:16:01.397Z,100396.50
2022-08-11T11:19:08.710Z,100402.75
2022-08-11T11:22:34.103Z,100394.56
2022-08-11T11:25:39.316Z,100384.41
2022-08-11T11:29:18.933Z,100368.69
2022-08-11T11:32:49.825Z,100379.25
2022-08-11T11:36:16.671Z,100364.16
2022-08-11T11:39:24.244Z,100377.62
2022-08-11T11:42:27.892Z,100376.19
2022-08-11T11:45:30.700Z,100365.84
2022-08-11T11:48:34.322Z,100362.09
2022-08-11T11:51:37.447Z,100359.13
